Time;durP1;ratioP1;P1;durP2;ratioP2;P2;SDS_P1;SDS_P2;PMS_P1;PMS_P2;Temp;Humidity;BMP_temperature;BMP_pressure;BME280_temperature;BME280_humidity;BME280_pressure;Samples;Min_cycle;Max_cycle;Signal;HPM_P1;HPM_P2
2023/12/21 00:01:09;;;;;;;;;;;9.30;99.90;;;;;;5074395;28;19935;-36
2023/12/21 00:03:35;;;;;;;;;;;9.30;99.90;;;;;;5073280;28;19944;-36
2023/12/21 00:06:04;;;;;;;;;;;9.30;99.90;;;;;;5072182;28;19929;-35
2023/12/21 00:08:30;;;;;;;;;;;9.30;99.90;;;;;;5093991;28;20301;-35
2023/12/21 00:10:58;;;;;;;;;;;9.30;99.90;;;;;;5084973;28;19924;-36
2023/12/21 00:13:26;;;;;;;;;;;9.30;99.90;;;;;;5097756;28;19942;-36
2023/12/21 00:15:52;;;;;;;;;;;9.30;99.90;;;;;;5078578;28;20031;-35
2023/12/21 00:18:19;;;;;;;;;;;9.40;99.90;;;;;;5073527;28;19997;-36
2023/12/21 00:20:46;;;;;;;;;;;9.30;99.90;;;;;;5075982;28;19963;-36
2023/12/21 00:23:17;;;;;;;;;;;9.30;99.90;;;;;;5094281;28;19967;-35
2023/12/21 00:25:44;;;;;;;;;;;9.30;99.90;;;;;;5081623;28;19992;-36
2023/12/21 00:28:10;;;;;;;;;;;9.30;99.90;;;;;;5094467;28;19991;-35
2023/12/21 00:30:37;;;;;;;;;;;9.30;99.90;;;;;;5077976;28;20326;-35
2023/12/21 00:33:04;;;;;;;;;;;9.30;99.90;;;;;;5071989;28;19956;-36
2023/12/21 00:35:30;;;;;;;;;;;9.30;99.90;;;;;;5082944;28;19942;-35
2023/12/21 00:37:57;;;;;;;;;;;9.30;99.90;;;;;;5076831;28;19988;-34
2023/12/21 00:40:25;;;;;;;;;;;9.30;99.90;;;;;;5079424;28;20279;-35
2023/12/21 00:42:52;;;;;;;;;;;9.30;99.90;;;;;;5077867;28;20406;-35
2023/12/21 00:45:18;;;;;;;;;;;9.30;99.90;;;;;;5072700;28;19991;-35
2023/12/21 00:47:45;;;;;;;;;;;9.30;99.90;;;;;;5101935;28;19963;-35
2023/12/21 00:50:12;;;;;;;;;;;9.30;99.90;;;;;;5082168;28;20406;-35
2023/12/21 00:52:38;;;;;;;;;;;9.30;99.90;;;;;;5077927;28;19924;-34
2023/12/21 00:55:05;;;;;;;;;;;9.30;99.90;;;;;;5103050;28;19938;-35
2023/12/21 00:57:33;;;;;;;;;;;9.30;99.90;;;;;;5093697;28;20489;-36
2023/12/21 01:00:00;;;;;;;;;;;9.40;99.90;;;;;;5096082;28;19938;-34
2023/12/21 01:02:26;;;;;;;;;;;9.40;99.90;;;;;;5082847;28;19963;-35
2023/12/21 01:04:53;;;;;;;;;;;9.40;99.90;;;;;;5096130;28;19984;-36
2023/12/21 01:07:20;;;;;;;;;;;9.40;99.90;;;;;;5083228;28;19938;-35
2023/12/21 01:09:47;;;;;;;;;;;9.40;99.90;;;;;;5112123;28;20471;-35
2023/12/21 01:12:13;;;;;;;;;;;9.40;99.90;;;;;;5100628;28;19945;-35
2023/12/21 01:14:41;;;;;;;;;;;9.40;99.90;;;;;;5082513;28;19999;-35
2023/12/21 01:17:13;;;;;;;;;;;9.40;99.90;;;;;;5083086;28;19940;-36
2023/12/21 01:19:40;;;;;;;;;;;9.40;99.90;;;;;;5078693;28;20346;-35
2023/12/21 01:22:07;;;;;;;;;;;9.40;99.90;;;;;;5080000;28;19960;-37
2023/12/21 01:24:33;;;;;;;;;;;9.40;99.90;;;;;;5070023;28;19977;-35
2023/12/21 01:27:00;;;;;;;;;;;9.40;99.90;;;;;;5089129;28;19958;-36
2023/12/21 01:29:26;;;;;;;;;;;9.40;99.90;;;;;;5112091;28;20284;-36
2023/12/21 01:31:54;;;;;;;;;;;9.30;99.90;;;;;;5088885;28;20004;-35
2023/12/21 01:34:21;;;;;;;;;;;9.30;99.90;;;;;;5088343;28;20029;-34
2023/12/21 01:36:48;;;;;;;;;;;9.40;99.90;;;;;;5111300;28;19982;-36
2023/12/21 01:39:14;;;;;;;;;;;9.30;99.90;;;;;;5091506;28;19976;-37
2023/12/21 01:41:41;;;;;;;;;;;9.30;99.90;;;;;;5082973;28;20007;-35
2023/12/21 01:44:08;;;;;;;;;;;9.40;99.90;;;;;;5092441;28;20028;-37
2023/12/21 01:46:34;;;;;;;;;;;9.30;99.90;;;;;;5106441;28;19980;-34
2023/12/21 01:49:03;;;;;;;;;;;9.30;99.90;;;;;;5105680;28;20019;-35
2023/12/21 01:51:29;;;;;;;;;;;9.30;99.90;;;;;;5087806;28;19982;-34
2023/12/21 01:53:56;;;;;;;;;;;9.30;99.90;;;;;;5095899;28;19928;-36
2023/12/21 01:56:22;;;;;;;;;;;9.30;99.90;;;;;;5078124;28;19947;-35
2023/12/21 01:58:49;;;;;;;;;;;9.30;99.90;;;;;;5082786;28;20501;-35
2023/12/21 02:01:17;;;;;;;;;;;9.30;99.90;;;;;;5099066;28;19924;-36
2023/12/21 02:03:44;;;;;;;;;;;9.30;99.90;;;;;;5090689;28;19985;-35
2023/12/21 02:06:12;;;;;;;;;;;9.30;99.90;;;;;;5098498;28;19924;-35
2023/12/21 02:08:39;;;;;;;;;;;9.30;99.90;;;;;;5080867;28;19954;-35
2023/12/21 02:11:08;;;;;;;;;;;9.30;99.90;;;;;;5112087;28;19960;-36
2023/12/21 02:13:34;;;;;;;;;;;9.30;99.90;;;;;;5100419;28;19977;-35
2023/12/21 02:16:02;;;;;;;;;;;9.30;99.90;;;;;;5074826;28;19924;-35
2023/12/21 02:18:29;;;;;;;;;;;9.30;99.90;;;;;;5088969;28;20325;-35
2023/12/21 02:20:56;;;;;;;;;;;9.30;99.90;;;;;;5098344;28;20007;-37
2023/12/21 02:23:24;;;;;;;;;;;9.30;99.90;;;;;;5088056;28;19939;-35
2023/12/21 02:25:52;;;;;;;;;;;9.30;99.90;;;;;;5085180;28;19970;-35
2023/12/21 02:28:18;;;;;;;;;;;9.30;99.90;;;;;;5084127;28;19954;-35
2023/12/21 02:30:47;;;;;;;;;;;9.30;99.90;;;;;;5078564;28;19940;-33
2023/12/21 02:33:14;;;;;;;;;;;9.30;99.90;;;;;;5079162;28;20378;-35
2023/12/21 02:35:40;;;;;;;;;;;9.30;99.90;;;;;;5076215;28;20002;-36
2023/12/21 02:38:07;;;;;;;;;;;9.30;99.90;;;;;;5090234;28;20009;-35
2023/12/21 02:40:34;;;;;;;;;;;9.30;99.90;;;;;;5097129;28;19924;-36
2023/12/21 02:43:02;;;;;;;;;;;9.30;99.90;;;;;;5074812;28;21231;-34
2023/12/21 02:45:28;;;;;;;;;;;9.30;99.90;;;;;;5075837;28;19999;-35
2023/12/21 02:47:55;;;;;;;;;;;9.30;99.90;;;;;;5075927;28;19938;-35
2023/12/21 02:50:21;;;;;;;;;;;9.20;99.90;;;;;;5087289;28;19924;-37
2023/12/21 02:52:48;;;;;;;;;;;9.20;99.90;;;;;;5109817;28;19991;-34
2023/12/21 02:55:15;;;;;;;;;;;9.20;99.90;;;;;;5094362;28;19976;-36
2023/12/21 02:57:41;;;;;;;;;;;9.20;99.90;;;;;;5113293;28;20428;-37
2023/12/21 03:00:10;;;;;;;;;;;9.20;99.90;;;;;;5089287;28;19929;-36
2023/12/21 03:02:37;;;;;;;;;;;9.20;99.90;;;;;;5074575;28;19995;-36
2023/12/21 03:05:03;;;;;;;;;;;9.20;99.90;;;;;;5074466;28;20291;-36
2023/12/21 03:07:30;;;;;;;;;;;9.20;99.90;;;;;;5092674;28;19928;-35
2023/12/21 03:09:57;;;;;;;;;;;9.20;99.90;;;;;;5074401;28;19999;-35
2023/12/21 03:12:23;;;;;;;;;;;9.20;99.90;;;;;;5110978;28;19924;-35
2023/12/21 03:14:50;;;;;;;;;;;9.20;99.90;;;;;;5106339;28;20028;-34
2023/12/21 03:17:18;;;;;;;;;;;9.20;99.90;;;;;;5090055;28;19942;-35
2023/12/21 03:19:44;;;;;;;;;;;9.20;99.90;;;;;;5080992;28;19950;-36
2023/12/21 03:22:11;;;;;;;;;;;9.20;99.90;;;;;;5101814;28;19923;-34
2023/12/21 03:24:39;;;;;;;;;;;9.20;99.90;;;;;;5105780;28;19934;-35
2023/12/21 03:27:06;;;;;;;;;;;9.20;99.90;;;;;;5109790;28;19965;-35
2023/12/21 03:29:33;;;;;;;;;;;9.10;99.90;;;;;;5094201;28;19966;-35
2023/12/21 03:31:59;;;;;;;;;;;9.20;99.90;;;;;;5092565;28;19953;-34
2023/12/21 03:34:27;;;;;;;;;;;9.20;99.90;;;;;;5086729;28;19954;-34
2023/12/21 03:36:54;;;;;;;;;;;9.20;99.90;;;;;;5094519;28;19991;-35
2023/12/21 03:39:20;;;;;;;;;;;9.10;99.90;;;;;;5087926;28;20056;-36
2023/12/21 03:41:47;;;;;;;;;;;9.20;99.90;;;;;;5104698;28;20351;-35
2023/12/21 03:44:14;;;;;;;;;;;9.10;99.90;;;;;;5099613;28;19987;-35
2023/12/21 03:46:40;;;;;;;;;;;9.20;99.90;;;;;;5106572;28;19989;-34
2023/12/21 03:49:07;;;;;;;;;;;9.20;99.90;;;;;;5073947;28;20022;-34
2023/12/21 03:51:35;;;;;;;;;;;9.20;99.90;;;;;;5076392;28;20398;-35
2023/12/21 03:54:01;;;;;;;;;;;9.10;99.90;;;;;;5075238;28;20051;-36
2023/12/21 03:56:28;;;;;;;;;;;9.10;99.90;;;;;;5078000;28;19988;-37
2023/12/21 03:58:55;;;;;;;;;;;9.10;99.90;;;;;;5103007;28;20031;-35
2023/12/21 04:01:25;;;;;;;;;;;9.10;99.90;;;;;;5086656;28;20385;-35
2023/12/21 04:03:51;;;;;;;;;;;9.20;99.90;;;;;;5070491;28;19938;-35
2023/12/21 04:06:18;;;;;;;;;;;9.20;99.90;;;;;;5094435;28;19938;-36
2023/12/21 04:08:46;;;;;;;;;;;9.20;99.90;;;;;;5107008;28;19995;-37
2023/12/21 04:11:13;;;;;;;;;;;9.20;99.90;;;;;;5093781;28;19993;-34
2023/12/21 04:13:40;;;;;;;;;;;9.20;99.90;;;;;;5082550;28;20016;-35
2023/12/21 04:16:07;;;;;;;;;;;9.20;99.90;;;;;;5080851;28;19934;-34
2023/12/21 04:18:33;;;;;;;;;;;9.20;99.90;;;;;;5090951;28;20061;-35
2023/12/21 04:21:00;;;;;;;;;;;9.20;99.90;;;;;;5097780;28;19927;-36
2023/12/21 04:23:26;;;;;;;;;;;9.20;99.90;;;;;;5083538;28;20344;-34
2023/12/21 04:25:54;;;;;;;;;;;9.20;99.90;;;;;;5090084;28;19970;-35
2023/12/21 04:28:21;;;;;;;;;;;9.20;99.90;;;;;;5098996;28;19954;-35
2023/12/21 04:30:48;;;;;;;;;;;9.20;99.90;;;;;;5082079;28;19979;-35
2023/12/21 04:33:14;;;;;;;;;;;9.20;99.90;;;;;;5079886;28;19936;-36
2023/12/21 04:35:43;;;;;;;;;;;9.20;99.90;;;;;;5079935;28;19943;-35
2023/12/21 04:38:10;;;;;;;;;;;9.20;99.90;;;;;;5088303;28;19992;-36
2023/12/21 04:40:36;;;;;;;;;;;9.20;99.90;;;;;;5082254;28;20003;-35
2023/12/21 04:43:05;;;;;;;;;;;9.20;99.90;;;;;;5090550;28;19924;-36
2023/12/21 04:45:31;;;;;;;;;;;9.20;99.90;;;;;;5112460;28;19930;-35
2023/12/21 04:47:58;;;;;;;;;;;9.20;99.90;;;;;;5085674;28;19965;-35
2023/12/21 04:50:24;;;;;;;;;;;9.30;99.90;;;;;;5088482;28;20131;-35
2023/12/21 04:52:51;;;;;;;;;;;9.20;99.90;;;;;;5093538;28;19954;-36
2023/12/21 04:55:18;;;;;;;;;;;9.20;99.90;;;;;;5112884;28;19976;-36
2023/12/21 04:57:45;;;;;;;;;;;9.20;99.90;;;;;;5089195;28;19944;-34
2023/12/21 05:00:13;;;;;;;;;;;9.20;99.90;;;;;;5090390;28;19957;-35
2023/12/21 05:02:40;;;;;;;;;;;9.30;99.90;;;;;;5085224;28;19975;-35
2023/12/21 05:05:07;;;;;;;;;;;9.20;99.90;;;;;;5080897;28;20283;-35
2023/12/21 05:07:33;;;;;;;;;;;9.20;99.90;;;;;;5095453;28;19980;-34
2023/12/21 05:10:00;;;;;;;;;;;9.30;99.90;;;;;;5093283;28;19942;-35
2023/12/21 05:12:27;;;;;;;;;;;9.20;99.90;;;;;;5102333;28;20465;-35
2023/12/21 05:14:54;;;;;;;;;;;9.20;99.90;;;;;;5095841;28;20412;-36
2023/12/21 05:17:22;;;;;;;;;;;9.20;99.90;;;;;;5075385;28;19928;-34
2023/12/21 05:19:49;;;;;;;;;;;9.20;99.90;;;;;;5079501;28;20375;-34
2023/12/21 05:22:15;;;;;;;;;;;9.20;99.90;;;;;;5111386;28;19999;-34
2023/12/21 05:24:42;;;;;;;;;;;9.20;99.90;;;;;;5092893;28;19971;-36
2023/12/21 05:27:09;;;;;;;;;;;9.20;99.90;;;;;;5095863;28;19946;-36
2023/12/21 05:29:35;;;;;;;;;;;9.20;99.90;;;;;;5092738;28;19954;-35
2023/12/21 05:32:02;;;;;;;;;;;9.20;99.90;;;;;;5115287;28;19938;-36
2023/12/21 05:34:30;;;;;;;;;;;9.20;99.90;;;;;;5084653;28;19940;-34
2023/12/21 05:36:59;;;;;;;;;;;9.20;99.90;;;;;;5097463;28;19943;-35
2023/12/21 05:39:25;;;;;;;;;;;9.20;99.90;;;;;;5103457;28;20040;-36
2023/12/21 05:41:53;;;;;;;;;;;9.20;99.90;;;;;;5090143;28;19939;-35
2023/12/21 05:44:19;;;;;;;;;;;9.20;99.90;;;;;;5112059;28;19927;-35
2023/12/21 05:46:46;;;;;;;;;;;9.20;99.90;;;;;;5095358;28;19943;-35
2023/12/21 05:49:12;;;;;;;;;;;9.20;99.90;;;;;;5089918;28;20466;-34
2023/12/21 05:51:40;;;;;;;;;;;9.20;99.90;;;;;;5082273;28;20355;-34
2023/12/21 05:54:07;;;;;;;;;;;9.20;99.90;;;;;;5094578;28;20351;-34
2023/12/21 05:56:35;;;;;;;;;;;9.20;99.90;;;;;;5093897;28;20463;-35
2023/12/21 05:59:02;;;;;;;;;;;9.20;99.90;;;;;;5107575;28;19939;-36
2023/12/21 06:01:28;;;;;;;;;;;9.20;99.90;;;;;;5097128;28;19937;-36
2023/12/21 06:03:55;;;;;;;;;;;9.20;99.90;;;;;;5098155;28;19999;-35
2023/12/21 06:06:22;;;;;;;;;;;9.30;99.90;;;;;;5113413;28;19941;-36
2023/12/21 06:08:51;;;;;;;;;;;9.20;99.90;;;;;;5096580;28;19977;-36
2023/12/21 06:11:17;;;;;;;;;;;9.20;99.90;;;;;;5099024;28;20334;-35
2023/12/21 06:13:44;;;;;;;;;;;9.30;99.90;;;;;;5076687;28;19957;-35
2023/12/21 06:16:11;;;;;;;;;;;9.20;99.90;;;;;;5085442;28;19975;-36
2023/12/21 06:18:38;;;;;;;;;;;9.30;99.90;;;;;;5090159;28;19999;-35
2023/12/21 06:21:05;;;;;;;;;;;9.30;99.90;;;;;;5080510;28;20043;-35
2023/12/21 06:23:31;;;;;;;;;;;9.30;99.90;;;;;;5083436;28;19993;-37
2023/12/21 06:26:00;;;;;;;;;;;9.30;99.90;;;;;;5076263;28;19977;-35
2023/12/21 06:28:27;;;;;;;;;;;9.30;99.90;;;;;;5085870;28;19973;-35
2023/12/21 06:30:53;;;;;;;;;;;9.30;99.90;;;;;;5074513;28;20073;-36
2023/12/21 06:33:20;;;;;;;;;;;9.40;99.90;;;;;;5088430;28;19958;-37
2023/12/21 06:35:47;;;;;;;;;;;9.40;99.90;;;;;;5073674;28;20012;-38
2023/12/21 06:38:13;;;;;;;;;;;9.40;99.90;;;;;;5080536;28;19940;-37
2023/12/21 06:40:40;;;;;;;;;;;9.40;99.90;;;;;;5083178;28;20373;-37
2023/12/21 06:43:08;;;;;;;;;;;9.40;99.90;;;;;;5080012;28;20339;-36
2023/12/21 06:45:35;;;;;;;;;;;9.40;99.90;;;;;;5095742;28;20041;-38
2023/12/21 06:48:01;;;;;;;;;;;9.50;99.90;;;;;;5077439;28;19958;-35
2023/12/21 06:50:28;;;;;;;;;;;9.50;99.90;;;;;;5073538;28;19938;-34
2023/12/21 06:52:55;;;;;;;;;;;9.50;99.90;;;;;;5076503;28;20047;-35
2023/12/21 06:55:21;;;;;;;;;;;9.50;99.90;;;;;;5099668;28;20397;-34
2023/12/21 06:57:48;;;;;;;;;;;9.50;99.90;;;;;;5079265;28;19985;-35
2023/12/21 07:00:17;;;;;;;;;;;9.50;99.90;;;;;;5090061;28;19950;-34
2023/12/21 07:02:44;;;;;;;;;;;9.50;99.90;;;;;;5077230;28;19944;-34
2023/12/21 07:05:10;;;;;;;;;;;9.60;99.90;;;;;;5104671;28;20499;-34
2023/12/21 07:07:37;;;;;;;;;;;9.50;99.90;;;;;;5081058;28;19958;-33
2023/12/21 07:10:04;;;;;;;;;;;9.50;99.90;;;;;;5092827;28;19938;-34
2023/12/21 07:12:30;;;;;;;;;;;9.50;99.90;;;;;;5086410;28;19923;-33
2023/12/21 07:14:57;;;;;;;;;;;9.40;99.90;;;;;;5082445;28;20474;-35
2023/12/21 07:17:25;;;;;;;;;;;9.40;99.90;;;;;;5105462;28;20393;-34
2023/12/21 07:19:52;;;;;;;;;;;9.40;99.90;;;;;;5107998;28;20380;-36
2023/12/21 07:22:18;;;;;;;;;;;9.40;99.90;;;;;;5105466;28;19947;-36
2023/12/21 07:24:45;;;;;;;;;;;9.40;99.90;;;;;;5076608;28;19998;-34
2023/12/21 07:27:12;;;;;;;;;;;9.40;99.90;;;;;;5083532;28;19958;-36
2023/12/21 07:29:39;;;;;;;;;;;9.40;99.90;;;;;;5085202;28;20455;-34
2023/12/21 07:32:06;;;;;;;;;;;9.40;99.90;;;;;;5091538;28;19940;-36
2023/12/21 07:34:33;;;;;;;;;;;9.40;99.90;;;;;;5109425;28;19975;-34
2023/12/21 07:37:00;;;;;;;;;;;9.40;99.90;;;;;;5089831;28;20370;-33
2023/12/21 07:39:27;;;;;;;;;;;9.40;99.90;;;;;;5078310;28;19994;-35
2023/12/21 07:41:54;;;;;;;;;;;9.40;99.90;;;;;;5107347;28;19924;-34
2023/12/21 07:44:20;;;;;;;;;;;9.40;99.90;;;;;;5069903;28;19996;-34
2023/12/21 07:46:47;;;;;;;;;;;9.40;99.90;;;;;;5069978;28;19998;-34
2023/12/21 07:49:14;;;;;;;;;;;9.40;99.90;;;;;;5097123;28;19978;-35
2023/12/21 07:51:42;;;;;;;;;;;9.40;99.90;;;;;;5072436;28;20017;-35
2023/12/21 07:54:09;;;;;;;;;;;9.40;99.90;;;;;;5070416;28;19939;-34
2023/12/21 07:56:35;;;;;;;;;;;9.40;99.90;;;;;;5082198;28;19984;-34
2023/12/21 07:59:04;;;;;;;;;;;9.40;99.90;;;;;;5072751;28;19988;-34
2023/12/21 08:01:31;;;;;;;;;;;9.40;99.90;;;;;;5099716;28;20048;-34
2023/12/21 08:03:58;;;;;;;;;;;9.40;99.90;;;;;;5076638;28;19943;-36
2023/12/21 08:06:25;;;;;;;;;;;9.40;99.90;;;;;;5082896;28;19981;-34
2023/12/21 08:08:53;;;;;;;;;;;9.40;99.90;;;;;;5084145;28;19942;-35
2023/12/21 08:11:20;;;;;;;;;;;9.40;99.90;;;;;;5075852;28;19940;-35
2023/12/21 08:13:47;;;;;;;;;;;9.40;99.90;;;;;;5104037;28;20004;-38
2023/12/21 08:16:13;;;;;;;;;;;9.40;99.90;;;;;;5097325;28;19938;-34
2023/12/21 08:18:40;;;;;;;;;;;9.40;99.90;;;;;;5115313;28;19949;-35
2023/12/21 08:21:07;;;;;;;;;;;9.40;99.90;;;;;;5096618;28;19966;-35
2023/12/21 08:23:34;;;;;;;;;;;9.40;99.90;;;;;;5097439;28;19944;-34
2023/12/21 08:26:02;;;;;;;;;;;9.40;99.90;;;;;;5097424;28;19938;-35
2023/12/21 08:28:30;;;;;;;;;;;9.40;99.90;;;;;;5112052;28;19935;-35
2023/12/21 08:30:57;;;;;;;;;;;9.40;99.90;;;;;;5076241;28;20015;-36
2023/12/21 08:33:23;;;;;;;;;;;9.40;99.90;;;;;;5103760;28;20013;-34
2023/12/21 08:35:50;;;;;;;;;;;9.40;99.90;;;;;;5094356;28;19936;-35
2023/12/21 08:38:17;;;;;;;;;;;9.40;99.90;;;;;;5076584;28;19990;-36
2023/12/21 08:40:43;;;;;;;;;;;9.40;99.90;;;;;;5094476;28;19954;-35
2023/12/21 08:43:11;;;;;;;;;;;9.40;99.90;;;;;;5095021;28;19940;-37
2023/12/21 08:45:38;;;;;;;;;;;9.40;99.90;;;;;;5077518;28;19932;-35
2023/12/21 08:48:05;;;;;;;;;;;9.40;99.90;;;;;;5065267;28;19971;-36
2023/12/21 08:50:32;;;;;;;;;;;9.50;99.90;;;;;;5096772;28;20015;-33
2023/12/21 08:53:00;;;;;;;;;;;9.50;99.90;;;;;;5095106;28;20007;-36
2023/12/21 08:55:27;;;;;;;;;;;9.50;99.90;;;;;;5096694;28;19930;-36
2023/12/21 08:57:54;;;;;;;;;;;9.50;99.90;;;;;;5113366;28;19948;-36
2023/12/21 09:00:22;;;;;;;;;;;9.50;99.90;;;;;;5114719;28;20384;-35
2023/12/21 09:02:48;;;;;;;;;;;9.60;99.90;;;;;;5096936;28;19924;-33
2023/12/21 09:05:15;;;;;;;;;;;9.60;99.90;;;;;;5104294;28;19938;-34
2023/12/21 09:07:41;;;;;;;;;;;9.60;99.90;;;;;;5076734;28;20013;-35
2023/12/21 09:10:08;;;;;;;;;;;9.60;99.90;;;;;;5094061;28;19932;-34
2023/12/21 09:12:35;;;;;;;;;;;9.60;99.90;;;;;;5075352;28;20072;-35
2023/12/21 09:15:02;;;;;;;;;;;9.70;99.90;;;;;;5094855;28;20307;-36
2023/12/21 09:17:30;;;;;;;;;;;9.70;99.90;;;;;;5079005;28;19938;-35
2023/12/21 09:19:57;;;;;;;;;;;9.70;99.90;;;;;;5075567;28;19985;-35
2023/12/21 09:22:24;;;;;;;;;;;9.80;99.90;;;;;;5075915;28;19950;-33
2023/12/21 09:24:50;;;;;;;;;;;9.80;99.90;;;;;;5075978;28;19939;-34
2023/12/21 09:27:17;;;;;;;;;;;9.80;99.90;;;;;;5075389;28;20443;-35
2023/12/21 09:29:44;;;;;;;;;;;9.80;99.90;;;;;;5076257;28;20274;-35
2023/12/21 09:32:10;;;;;;;;;;;9.80;99.90;;;;;;5093495;28;19978;-36
2023/12/21 09:34:39;;;;;;;;;;;9.80;99.90;;;;;;5075488;28;20019;-36
2023/12/21 09:37:05;;;;;;;;;;;9.90;99.90;;;;;;5094409;28;19940;-34
2023/12/21 09:39:32;;;;;;;;;;;9.90;99.90;;;;;;5090311;28;19944;-36
2023/12/21 09:42:00;;;;;;;;;;;9.90;99.90;;;;;;5113568;28;20031;-36
2023/12/21 09:44:27;;;;;;;;;;;9.90;99.90;;;;;;5093468;28;19969;-35
2023/12/21 09:46:54;;;;;;;;;;;9.90;99.90;;;;;;5090844;28;20280;-34
2023/12/21 09:49:20;;;;;;;;;;;9.90;99.90;;;;;;5093371;28;19977;-35
2023/12/21 09:51:48;;;;;;;;;;;10.00;99.90;;;;;;5113424;28;19978;-35
2023/12/21 09:54:16;;;;;;;;;;;10.00;99.90;;;;;;5092329;28;19943;-35
2023/12/21 09:56:42;;;;;;;;;;;10.00;99.90;;;;;;5074638;28;20032;-35
2023/12/21 09:59:10;;;;;;;;;;;10.10;99.90;;;;;;5093218;28;19941;-37
2023/12/21 10:01:37;;;;;;;;;;;10.10;99.90;;;;;;5079201;28;20005;-36
2023/12/21 10:04:03;;;;;;;;;;;10.10;99.90;;;;;;5075383;28;20305;-36
2023/12/21 10:06:30;;;;;;;;;;;10.10;99.90;;;;;;5112493;28;19984;-35
2023/12/21 10:08:58;;;;;;;;;;;10.10;99.90;;;;;;5091849;28;19943;-35
2023/12/21 10:11:24;;;;;;;;;;;10.20;99.90;;;;;;5074044;28;19924;-36
2023/12/21 10:13:55;;;;;;;;;;;10.20;99.90;;;;;;5074717;28;19940;-37
2023/12/21 10:16:21;;;;;;;;;;;10.30;99.90;;;;;;5113212;28;20292;-34
2023/12/21 10:18:50;;;;;;;;;;;10.20;99.90;;;;;;5086743;28;19985;-35
2023/12/21 10:21:17;;;;;;;;;;;10.30;99.90;;;;;;5110587;28;19962;-35
2023/12/21 10:23:43;;;;;;;;;;;10.30;99.90;;;;;;5092447;28;20389;-36
2023/12/21 10:26:11;;;;;;;;;;;10.40;99.90;;;;;;5092436;28;19987;-35
2023/12/21 10:28:38;;;;;;;;;;;10.40;99.90;;;;;;5101780;28;19934;-35
2023/12/21 10:31:05;;;;;;;;;;;10.40;99.90;;;;;;5092831;28;19934;-35
2023/12/21 10:33:31;;;;;;;;;;;10.50;99.90;;;;;;5074591;28;20393;-35
2023/12/21 10:35:58;;;;;;;;;;;10.50;99.90;;;;;;5092640;28;19932;-36
2023/12/21 10:38:25;;;;;;;;;;;10.50;99.90;;;;;;5092300;28;19938;-35
2023/12/21 10:40:51;;;;;;;;;;;10.60;99.90;;;;;;5078608;28;20007;-36
2023/12/21 10:43:19;;;;;;;;;;;10.70;99.90;;;;;;5094777;28;19943;-36
2023/12/21 10:45:46;;;;;;;;;;;10.70;99.90;;;;;;5094395;28;19938;-38
2023/12/21 10:48:15;;;;;;;;;;;10.70;99.90;;;;;;5094200;28;19924;-36
2023/12/21 10:50:43;;;;;;;;;;;10.70;99.90;;;;;;5112384;28;20016;-36
2023/12/21 10:53:10;;;;;;;;;;;10.70;99.90;;;;;;5094193;28;19946;-36
2023/12/21 10:55:37;;;;;;;;;;;10.80;99.90;;;;;;5112275;28;19959;-35
2023/12/21 10:58:06;;;;;;;;;;;10.80;99.90;;;;;;5094378;28;19943;-35
2023/12/21 11:00:34;;;;;;;;;;;10.90;99.90;;;;;;5112228;28;20026;-35
2023/12/21 11:03:02;;;;;;;;;;;10.90;99.90;;;;;;5095286;28;20411;-36
2023/12/21 11:05:31;;;;;;;;;;;10.90;99.90;;;;;;5073645;28;19942;-35
2023/12/21 11:08:00;;;;;;;;;;;10.90;99.90;;;;;;5084834;28;20295;-38
2023/12/21 11:10:28;;;;;;;;;;;10.90;99.90;;;;;;5093003;28;20318;-36
2023/12/21 11:12:55;;;;;;;;;;;10.90;99.90;;;;;;5075699;28;19969;-36
2023/12/21 11:15:22;;;;;;;;;;;10.90;99.90;;;;;;5083117;28;19935;-35
2023/12/21 11:17:51;;;;;;;;;;;10.90;99.90;;;;;;5086963;28;20064;-37
2023/12/21 11:20:18;;;;;;;;;;;10.80;99.90;;;;;;5070432;28;20564;-36
2023/12/21 11:22:45;;;;;;;;;;;10.90;99.90;;;;;;5078795;28;19962;-36
2023/12/21 11:25:13;;;;;;;;;;;10.80;99.90;;;;;;5071626;28;19958;-34
2023/12/21 11:27:40;;;;;;;;;;;10.80;99.90;;;;;;5072861;28;19938;-35
2023/12/21 11:30:08;;;;;;;;;;;10.80;99.90;;;;;;5073660;28;19973;-36
2023/12/21 11:32:35;;;;;;;;;;;10.90;99.90;;;;;;5072646;28;20011;-35
2023/12/21 11:35:03;;;;;;;;;;;10.80;99.90;;;;;;5073428;28;20454;-36
2023/12/21 11:37:30;;;;;;;;;;;10.80;99.90;;;;;;5072893;28;20018;-36
2023/12/21 11:39:57;;;;;;;;;;;10.80;99.90;;;;;;5071670;28;19942;-34
2023/12/21 11:42:32;;;;;;;;;;;10.80;99.90;;;;;;5077260;28;20352;-34
2023/12/21 11:45:00;;;;;;;;;;;10.80;99.90;;;;;;5092551;28;19943;-36
2023/12/21 11:47:28;;;;;;;;;;;10.80;99.90;;;;;;5111286;28;19986;-36
2023/12/21 11:50:06;;;;;;;;;;;10.80;99.90;;;;;;5111356;28;20308;-35
2023/12/21 11:52:32;;;;;;;;;;;10.80;99.90;;;;;;5111770;28;19924;-38
2023/12/21 11:54:59;;;;;;;;;;;10.80;99.90;;;;;;5109933;28;19940;-35
2023/12/21 11:57:27;;;;;;;;;;;10.80;99.90;;;;;;5073321;28;19939;-35
2023/12/21 12:00:07;;;;;;;;;;;10.80;99.90;;;;;;5073059;28;19966;-35
2023/12/21 12:02:34;;;;;;;;;;;10.80;99.90;;;;;;5073225;28;19924;-35
2023/12/21 12:05:02;;;;;;;;;;;10.90;99.90;;;;;;5075666;28;19934;-34
2023/12/21 12:07:31;;;;;;;;;;;10.90;99.90;;;;;;5090160;28;19939;-35
2023/12/21 12:09:58;;;;;;;;;;;10.90;99.90;;;;;;5089625;28;19959;-36
2023/12/21 12:12:24;;;;;;;;;;;10.80;99.90;;;;;;5072281;28;20357;-36
2023/12/21 12:14:52;;;;;;;;;;;10.90;99.90;;;;;;5072548;28;19938;-36
2023/12/21 12:17:18;;;;;;;;;;;10.90;99.90;;;;;;5072529;28;20360;-35
2023/12/21 12:19:45;;;;;;;;;;;10.90;99.90;;;;;;5072314;28;19943;-36
2023/12/21 12:22:12;;;;;;;;;;;10.90;99.90;;;;;;5055430;28;19964;-36
2023/12/21 12:24:42;;;;;;;;;;;11.00;99.90;;;;;;5050525;28;19961;-38
2023/12/21 12:27:09;;;;;;;;;;;10.90;99.90;;;;;;5052934;28;19942;-37
2023/12/21 12:29:36;;;;;;;;;;;11.00;99.90;;;;;;5082197;28;19937;-35
2023/12/21 12:32:06;;;;;;;;;;;11.00;99.90;;;;;;5052902;28;19924;-35
2023/12/21 12:34:32;;;;;;;;;;;11.00;99.90;;;;;;5060003;28;19935;-38
2023/12/21 12:37:02;;;;;;;;;;;11.00;99.90;;;;;;5075095;28;20383;-36
2023/12/21 12:39:29;;;;;;;;;;;10.90;99.90;;;;;;5054959;28;19943;-35
2023/12/21 12:41:57;;;;;;;;;;;11.00;99.90;;;;;;5090585;28;20319;-35
2023/12/21 12:44:24;;;;;;;;;;;10.90;99.90;;;;;;5090666;28;20467;-35
2023/12/21 12:46:51;;;;;;;;;;;10.90;99.90;;;;;;5086098;28;20005;-36
2023/12/21 12:49:18;;;;;;;;;;;10.90;99.90;;;;;;5056136;28;20437;-35
2023/12/21 12:51:44;;;;;;;;;;;11.00;99.90;;;;;;5047900;28;19944;-35
2023/12/21 12:54:11;;;;;;;;;;;10.90;99.90;;;;;;5073452;28;19990;-36
2023/12/21 12:56:44;;;;;;;;;;;11.00;99.90;;;;;;5074657;28;19982;-34
2023/12/21 12:59:12;;;;;;;;;;;10.90;99.90;;;;;;5055182;28;19946;-39
2023/12/21 13:01:39;;;;;;;;;;;10.90;99.90;;;;;;5074852;28;19955;-37
2023/12/21 13:04:06;;;;;;;;;;;10.90;99.90;;;;;;5056938;28;20002;-35
2023/12/21 13:06:32;;;;;;;;;;;10.90;99.90;;;;;;5074838;28;19942;-35
2023/12/21 13:08:59;;;;;;;;;;;10.90;99.90;;;;;;5056578;28;19939;-36
2023/12/21 13:11:26;;;;;;;;;;;10.90;99.90;;;;;;5056876;28;19965;-38
2023/12/21 13:13:52;;;;;;;;;;;10.90;99.90;;;;;;5071490;28;19942;-37
2023/12/21 13:16:20;;;;;;;;;;;10.90;99.90;;;;;;5055810;28;19931;-36
2023/12/21 13:18:47;;;;;;;;;;;10.90;99.90;;;;;;5075434;28;20034;-37
2023/12/21 13:21:14;;;;;;;;;;;10.90;99.90;;;;;;5065762;28;19931;-35
2023/12/21 13:23:40;;;;;;;;;;;10.90;99.90;;;;;;5081491;28;19947;-35
2023/12/21 13:26:08;;;;;;;;;;;10.90;99.90;;;;;;5078084;28;19950;-34
2023/12/21 13:28:34;;;;;;;;;;;10.90;99.90;;;;;;5083120;28;20279;-36
2023/12/21 13:31:02;;;;;;;;;;;10.90;99.90;;;;;;5106849;28;20394;-34
2023/12/21 13:33:30;;;;;;;;;;;10.90;99.90;;;;;;5085824;28;19924;-36
2023/12/21 13:35:57;;;;;;;;;;;10.90;99.90;;;;;;5076927;28;19941;-36
2023/12/21 13:38:23;;;;;;;;;;;10.90;99.90;;;;;;5062987;28;19935;-36
2023/12/21 13:40:50;;;;;;;;;;;10.80;99.90;;;;;;5076596;28;19977;-37
2023/12/21 13:43:18;;;;;;;;;;;10.90;99.90;;;;;;5076365;28;19957;-35
2023/12/21 13:45:45;;;;;;;;;;;10.80;99.90;;;;;;5076118;28;19943;-38
2023/12/21 13:48:12;;;;;;;;;;;10.80;99.90;;;;;;5094298;28;19966;-36
2023/12/21 13:50:40;;;;;;;;;;;10.80;99.90;;;;;;5076509;28;20348;-39
2023/12/21 13:53:06;;;;;;;;;;;10.80;99.90;;;;;;5093650;28;19962;-36
2023/12/21 13:55:36;;;;;;;;;;;10.80;99.90;;;;;;5083048;28;19998;-34
2023/12/21 13:58:06;;;;;;;;;;;10.70;99.90;;;;;;5073669;28;20383;-36
2023/12/21 14:00:33;;;;;;;;;;;10.70;99.90;;;;;;5093473;28;19989;-35
2023/12/21 14:03:00;;;;;;;;;;;10.70;99.90;;;;;;5079828;28;19961;-35
2023/12/21 14:05:26;;;;;;;;;;;10.60;99.90;;;;;;5076578;28;19967;-36
2023/12/21 14:07:54;;;;;;;;;;;10.70;99.90;;;;;;5074490;28;20479;-36
2023/12/21 14:10:21;;;;;;;;;;;10.70;99.90;;;;;;5076109;28;19940;-36
2023/12/21 14:12:48;;;;;;;;;;;10.60;99.90;;;;;;5075403;28;19990;-34
2023/12/21 14:15:14;;;;;;;;;;;10.60;99.90;;;;;;5075826;28;19924;-36
2023/12/21 14:17:41;;;;;;;;;;;10.60;99.90;;;;;;5075970;28;20063;-34
2023/12/21 14:20:08;;;;;;;;;;;10.60;99.90;;;;;;5075859;28;19984;-35
2023/12/21 14:22:35;;;;;;;;;;;10.60;99.90;;;;;;5055579;28;20045;-36
2023/12/21 14:25:03;;;;;;;;;;;10.50;99.90;;;;;;5055699;28;20038;-36